Time;durP1;ratioP1;P1;durP2;ratioP2;P2;SDS_P1;SDS_P2;PMS_P1;PMS_P2;Temp;Humidity;BMP_temperature;BMP_pressure;BME280_temperature;BME280_humidity;BME280_pressure;Samples;Min_cycle;Max_cycle;Signal;HPM_P1;HPM_P2
2023/09/07 00:00:37;;;;;;;;;;;;;;;19.95;78.89;101883.34;5063704;28;1089;-80
2023/09/07 00:03:03;;;;;;;;;;;;;;;19.92;79.25;101888.94;5068907;28;1105;-80
2023/09/07 00:05:29;;;;;;;;;;;;;;;19.88;79.49;101879.72;5059942;28;1062;-79
2023/09/07 00:07:55;;;;;;;;;;;;;;;19.86;79.48;101879.06;5069150;28;1113;-78
2023/09/07 00:10:21;;;;;;;;;;;;;;;19.84;79.89;101873.13;5065435;28;1032;-79
2023/09/07 00:12:46;;;;;;;;;;;;;;;19.79;80.10;101870.16;5056806;28;1922;-80
2023/09/07 00:15:11;;;;;;;;;;;;;;;19.79;80.29;101872.81;5060548;28;1041;-80
2023/09/07 00:17:39;;;;;;;;;;;;;;;19.79;80.49;101870.16;5065167;28;1150;-79
2023/09/07 00:20:10;;;;;;;;;;;;;;;19.77;80.40;101869.47;5059821;28;1102;-79
2023/09/07 00:22:36;;;;;;;;;;;;;;;19.76;80.53;101868.66;5061874;28;1229;-79
2023/09/07 00:25:01;;;;;;;;;;;;;;;19.73;80.63;101865.53;5062938;28;1530;-80
2023/09/07 00:27:26;;;;;;;;;;;;;;;19.71;80.83;101864.84;5063666;28;1268;-79
2023/09/07 00:29:52;;;;;;;;;;;;;;;19.69;81.04;101861.56;5062334;28;1135;-79
2023/09/07 00:32:17;;;;;;;;;;;;;;;19.67;80.66;101863.53;5064378;28;1004;-79
2023/09/07 00:34:46;;;;;;;;;;;;;;;19.63;81.16;101857.78;5056896;28;1898;-79
2023/09/07 00:37:11;;;;;;;;;;;;;;;19.62;81.14;101856.94;5063938;28;1244;-79
2023/09/07 00:39:36;;;;;;;;;;;;;;;19.59;81.29;101851.16;5058535;28;1065;-80
2023/09/07 00:42:02;;;;;;;;;;;;;;;19.57;81.43;101853.94;5064955;28;1237;-80
2023/09/07 00:44:27;;;;;;;;;;;;;;;19.55;81.40;101855.88;5061756;28;1055;-79
2023/09/07 00:46:52;;;;;;;;;;;;;;;19.51;81.57;101849.31;5054290;28;1347;-80
2023/09/07 00:49:17;;;;;;;;;;;;;;;19.47;81.65;101853.22;5065753;28;1338;-80
2023/09/07 00:51:43;;;;;;;;;;;;;;;19.43;81.89;101846.63;5062999;28;1251;-80
2023/09/07 00:54:08;;;;;;;;;;;;;;;19.40;81.84;101849.59;5059468;28;1963;-80
2023/09/07 00:56:35;;;;;;;;;;;;;;;19.37;82.04;101847.25;5064663;28;1322;-81
2023/09/07 00:59:00;;;;;;;;;;;;;;;19.36;82.10;101856.97;5071093;28;1431;-81
2023/09/07 01:01:29;;;;;;;;;;;;;;;19.34;82.16;101850.22;5067468;28;1283;-81
2023/09/07 01:03:57;;;;;;;;;;;;;;;19.32;82.46;101853.00;5062323;28;1377;-79
2023/09/07 01:06:30;;;;;;;;;;;;;;;19.30;82.52;101848.88;5065481;28;1287;-80
2023/09/07 01:08:57;;;;;;;;;;;;;;;19.27;82.65;101846.59;5064492;28;1267;-79
2023/09/07 01:11:22;;;;;;;;;;;;;;;19.24;82.67;101852.97;5065078;28;1331;-78
2023/09/07 01:13:48;;;;;;;;;;;;;;;19.22;82.96;101847.03;5065909;28;1955;-78
2023/09/07 01:16:13;;;;;;;;;;;;;;;19.22;83.21;101848.84;5048926;28;1550;-78
2023/09/07 01:18:39;;;;;;;;;;;;;;;19.20;83.18;101845.53;5073868;28;1231;-78
2023/09/07 01:21:07;;;;;;;;;;;;;;;19.18;83.20;101850.13;5063521;28;1660;-80
2023/09/07 01:23:33;;;;;;;;;;;;;;;19.17;83.39;101851.13;5050725;28;1509;-79
2023/09/07 01:25:58;;;;;;;;;;;;;;;19.14;83.63;101851.41;5063696;28;1056;-79
2023/09/07 01:28:23;;;;;;;;;;;;;;;19.09;83.96;101847.44;5058843;28;1140;-79
2023/09/07 01:30:50;;;;;;;;;;;;;;;19.09;83.86;101852.72;5043478;28;1583;-79
2023/09/07 01:33:16;;;;;;;;;;;;;;;19.08;83.95;101845.81;5051555;28;1973;-79
2023/09/07 01:35:41;;;;;;;;;;;;;;;19.05;84.07;101835.63;5053717;28;1298;-79
2023/09/07 01:38:06;;;;;;;;;;;;;;;19.03;84.10;101840.19;5059169;28;1074;-79
2023/09/07 01:40:31;;;;;;;;;;;;;;;18.99;84.19;101828.34;5052845;28;1570;-79
2023/09/07 01:45:59;;;;;;;;;;;;;;;18.93;84.21;101844.75;5063497;28;2668;-79
2023/09/07 01:48:24;;;;;;;;;;;;;;;18.88;84.31;101838.31;5142550;23;7255;-80
2023/09/07 01:50:53;;;;;;;;;;;;;;;18.83;84.54;101839.59;5246752;23;2133;-79
2023/09/07 01:53:19;;;;;;;;;;;;;;;18.81;84.59;101835.47;5039471;28;1957;-79
2023/09/07 01:55:44;;;;;;;;;;;;;;;18.79;84.61;101834.78;5043504;28;1267;-79
2023/09/07 01:58:09;;;;;;;;;;;;;;;18.73;84.76;101838.03;5034488;28;1312;-79
2023/09/07 02:00:38;;;;;;;;;;;;;;;18.68;85.12;101832.41;5043019;28;1172;-78
2023/09/07 02:03:04;;;;;;;;;;;;;;;18.66;85.27;101831.72;5038545;28;1194;-78
2023/09/07 02:05:29;;;;;;;;;;;;;;;18.61;85.39;101836.59;5038527;28;1094;-78
2023/09/07 02:07:54;;;;;;;;;;;;;;;18.57;85.67;101834.25;5022920;28;1236;-78
2023/09/07 02:10:20;;;;;;;;;;;;;;;18.53;85.73;101835.56;5034312;28;1245;-78
2023/09/07 02:12:45;;;;;;;;;;;;;;;18.52;85.96;101835.69;5044658;28;2215;-78
2023/09/07 02:15:11;;;;;;;;;;;;;;;18.51;86.13;101834.06;5034173;28;1265;-78
2023/09/07 02:17:36;;;;;;;;;;;;;;;18.49;86.25;101831.59;5045277;28;1201;-77
2023/09/07 02:20:01;;;;;;;;;;;;;;;18.48;86.13;101829.94;5045457;28;1056;-79
2023/09/07 02:22:27;;;;;;;;;;;;;;;18.45;86.34;101838.13;5039683;28;1498;-78
2023/09/07 02:24:52;;;;;;;;;;;;;;;18.43;86.60;101837.44;5022013;28;1269;-79
2023/09/07 02:27:17;;;;;;;;;;;;;;;18.42;86.43;101834.97;5040142;28;1398;-78
2023/09/07 02:29:42;;;;;;;;;;;;;;;18.40;86.45;101837.75;5038952;28;1352;-78
2023/09/07 02:32:09;;;;;;;;;;;;;;;18.39;86.55;101832.66;5050127;28;1213;-78
2023/09/07 02:34:36;;;;;;;;;;;;;;;18.36;86.74;101831.16;5022924;28;1890;-78
2023/09/07 02:37:01;;;;;;;;;;;;;;;18.32;86.73;101832.44;5039902;28;1209;-79
2023/09/07 02:39:26;;;;;;;;;;;;;;;18.28;87.10;101836.31;5051562;28;1264;-78
2023/09/07 02:41:52;;;;;;;;;;;;;;;18.28;86.96;101833.69;5050776;28;1091;-78
2023/09/07 02:44:17;;;;;;;;;;;;;;;18.27;87.02;101837.31;5035847;28;1497;-78
2023/09/07 02:46:42;;;;;;;;;;;;;;;18.26;87.05;101830.41;5050034;28;1255;-78
2023/09/07 02:49:08;;;;;;;;;;;;;;;18.25;87.16;101834.00;5053919;28;1213;-78
2023/09/07 02:51:33;;;;;;;;;;;;;;;18.23;87.35;101830.69;5039943;28;1499;-78
2023/09/07 02:53:58;;;;;;;;;;;;;;;18.23;87.53;101833.31;5030516;28;1965;-78
2023/09/07 02:56:23;;;;;;;;;;;;;;;18.20;87.36;101831.00;5050470;28;1192;-79
2023/09/07 02:58:48;;;;;;;;;;;;;;;18.16;87.40;101829.66;5050703;28;1267;-79
2023/09/07 03:01:14;;;;;;;;;;;;;;;18.15;87.71;101833.25;5046058;28;1251;-78
2023/09/07 03:03:41;;;;;;;;;;;;;;;18.12;87.83;101837.03;5045932;28;1319;-78
2023/09/07 03:06:10;;;;;;;;;;;;;;;18.09;87.95;101841.75;5028593;28;1289;-78
2023/09/07 03:08:35;;;;;;;;;;;;;;;18.05;88.24;101831.53;5029605;28;1523;-78
2023/09/07 03:11:07;;;;;;;;;;;;;;;18.01;88.41;101832.81;5045773;28;1201;-78
2023/09/07 03:13:32;;;;;;;;;;;;;;;17.98;88.32;101827.84;5040976;28;1963;-78
2023/09/07 03:15:58;;;;;;;;;;;;;;;17.96;88.56;101823.72;5042793;28;1174;-78
2023/09/07 03:18:23;;;;;;;;;;;;;;;17.94;88.51;101825.66;5042268;28;1189;-78
2023/09/07 03:20:49;;;;;;;;;;;;;;;17.91;88.61;101826.81;5037690;28;1296;-78
2023/09/07 03:23:15;;;;;;;;;;;;;;;17.90;88.57;101830.41;5038918;28;1406;-78
2023/09/07 03:25:40;;;;;;;;;;;;;;;17.90;88.47;101825.16;5028010;28;1434;-78
2023/09/07 03:28:05;;;;;;;;;;;;;;;17.88;88.60;101831.50;5046497;28;1085;-78
2023/09/07 03:30:31;;;;;;;;;;;;;;;17.86;88.83;101829.03;5033014;28;1344;-78
2023/09/07 03:32:56;;;;;;;;;;;;;;;17.84;88.63;101824.94;5040993;28;1885;-78
2023/09/07 03:35:21;;;;;;;;;;;;;;;17.83;88.81;101824.06;5039054;28;1832;-78
2023/09/07 03:37:47;;;;;;;;;;;;;;;17.83;88.75;101829.31;5048579;28;1044;-78
2023/09/07 03:40:12;;;;;;;;;;;;;;;17.83;88.83;101826.69;5022892;28;1195;-79
2023/09/07 03:42:38;;;;;;;;;;;;;;;17.80;89.11;101824.38;5047341;28;1365;-79
2023/09/07 03:45:04;;;;;;;;;;;;;;;17.78;89.19;101826.34;5046384;28;1140;-78
2023/09/07 03:47:29;;;;;;;;;;;;;;;17.74;89.21;101831.06;5045506;28;1378;-79
2023/09/07 03:49:56;;;;;;;;;;;;;;;17.72;89.63;101829.53;5037818;28;1355;-80
2023/09/07 03:52:24;;;;;;;;;;;;;;;17.69;89.63;101827.19;5045188;28;1327;-79
2023/09/07 03:54:49;;;;;;;;;;;;;;;17.68;89.47;101830.78;5036525;28;1976;-79
2023/09/07 03:57:14;;;;;;;;;;;;;;;17.65;89.58;101831.06;5040347;28;1265;-79
2023/09/07 03:59:39;;;;;;;;;;;;;;;17.61;89.62;101833.19;5047734;28;1208;-79
2023/09/07 04:02:05;;;;;;;;;;;;;;;17.60;89.74;101833.28;5042487;28;1192;-80
2023/09/07 04:04:30;;;;;;;;;;;;;;;17.58;89.64;101835.25;5031223;28;1445;-79
2023/09/07 04:06:55;;;;;;;;;;;;;;;17.58;89.76;101830.00;5041206;28;1315;-79
2023/09/07 04:09:20;;;;;;;;;;;;;;;17.57;89.82;101828.38;5043744;28;1075;-79
2023/09/07 04:11:45;;;;;;;;;;;;;;;17.55;89.65;101820.66;5050935;28;1414;-79
2023/09/07 04:14:11;;;;;;;;;;;;;;;17.55;89.98;101832.91;5042776;28;1901;-79
2023/09/07 04:16:36;;;;;;;;;;;;;;;17.52;89.98;101827.00;5030253;28;1635;-79
2023/09/07 04:19:01;;;;;;;;;;;;;;;17.49;90.31;101840.41;5047514;28;1127;-79
2023/09/07 04:21:26;;;;;;;;;;;;;;;17.45;90.35;101833.81;5031766;28;1208;-78
2023/09/07 04:23:51;;;;;;;;;;;;;;;17.43;90.27;101830.50;5027560;28;1383;-78
2023/09/07 04:26:17;;;;;;;;;;;;;;;17.40;90.25;101828.16;5039278;28;1298;-79
2023/09/07 04:28:42;;;;;;;;;;;;;;;17.38;90.44;101830.13;5026462;28;1536;-78
2023/09/07 04:31:07;;;;;;;;;;;;;;;17.37;90.61;101822.38;5034151;28;1116;-79
2023/09/07 04:33:33;;;;;;;;;;;;;;;17.34;90.22;101831.38;5041368;28;1890;-79
2023/09/07 04:36:08;;;;;;;;;;;;;;;17.31;90.29;101834.25;5026037;28;1439;-78
2023/09/07 04:38:33;;;;;;;;;;;;;;;17.27;90.35;101840.78;5024767;28;1564;-78
2023/09/07 04:41:12;;;;;;;;;;;;;;;17.22;90.16;101832.53;5041115;28;1542;-79
2023/09/07 04:43:40;;;;;;;;;;;;;;;17.18;90.41;101839.00;5030786;28;1227;-80
2023/09/07 04:46:05;;;;;;;;;;;;;;;17.17;90.62;101826.88;5046436;28;1356;-79
2023/09/07 04:48:30;;;;;;;;;;;;;;;17.15;90.71;101837.53;5049284;28;1307;-78
2023/09/07 04:51:03;;;;;;;;;;;;;;;17.15;90.92;101834.06;5043994;28;1264;-78
2023/09/07 04:53:29;;;;;;;;;;;;;;;17.14;90.91;101837.63;5045416;28;1902;-79
2023/09/07 04:55:54;;;;;;;;;;;;;;;17.12;90.84;101835.16;5043001;28;1294;-78
2023/09/07 04:58:19;;;;;;;;;;;;;;;17.10;90.94;101831.06;5048032;28;1259;-79
2023/09/07 05:00:44;;;;;;;;;;;;;;;17.08;91.15;101832.97;5049553;28;1263;-80
2023/09/07 05:03:10;;;;;;;;;;;;;;;17.05;90.99;101834.09;5046825;28;1329;-78
2023/09/07 05:05:35;;;;;;;;;;;;;;;17.03;91.54;101838.63;5040971;28;1268;-79
2023/09/07 05:08:00;;;;;;;;;;;;;;;17.02;91.32;101838.78;5032678;28;1285;-79
2023/09/07 05:10:25;;;;;;;;;;;;;;;17.02;91.47;101838.78;5047203;28;1613;-79
2023/09/07 05:12:51;;;;;;;;;;;;;;;17.01;91.79;101842.38;5047703;28;1890;-78
2023/09/07 05:15:17;;;;;;;;;;;;;;;16.99;91.70;101851.22;5047066;28;1148;-78
2023/09/07 05:17:42;;;;;;;;;;;;;;;17.01;92.02;101847.63;5032996;28;1270;-78
2023/09/07 05:20:09;;;;;;;;;;;;;;;16.99;92.14;101856.47;5032296;28;1509;-78
2023/09/07 05:22:37;;;;;;;;;;;;;;;16.99;91.90;101851.22;5040750;28;1216;-79
2023/09/07 05:25:02;;;;;;;;;;;;;;;16.97;92.10;101863.66;5042737;28;1374;-78
2023/09/07 05:27:27;;;;;;;;;;;;;;;16.96;92.46;101856.72;5043827;28;1130;-78
2023/09/07 05:29:52;;;;;;;;;;;;;;;16.95;92.27;101859.50;5040719;28;1102;-78
2023/09/07 05:32:18;;;;;;;;;;;;;;;16.94;92.27;101863.91;5043839;28;1063;-78
2023/09/07 05:34:43;;;;;;;;;;;;;;;16.94;92.26;101857.84;5036367;28;1890;-78
2023/09/07 05:37:08;;;;;;;;;;;;;;;16.93;92.65;101864.88;5038741;28;1259;-78
2023/09/07 05:39:33;;;;;;;;;;;;;;;16.93;92.73;101867.50;5037141;28;1321;-78
2023/09/07 05:41:58;;;;;;;;;;;;;;;16.92;92.86;101865.84;5040087;28;1137;-79
2023/09/07 05:44:24;;;;;;;;;;;;;;;16.89;92.69;101871.38;5036550;28;1097;-80
2023/09/07 05:46:49;;;;;;;;;;;;;;;16.92;92.64;101871.09;5041329;28;1115;-78
2023/09/07 05:49:14;;;;;;;;;;;;;;;16.94;92.95;101879.63;5045126;28;1410;-78
2023/09/07 05:51:39;;;;;;;;;;;;;;;16.97;92.92;101871.50;5046938;28;1292;-78
2023/09/07 05:54:04;;;;;;;;;;;;;;;16.99;93.26;101872.19;5045002;28;1953;-78
2023/09/07 05:56:30;;;;;;;;;;;;;;;17.03;93.20;101867.47;5045954;28;1268;-78
2023/09/07 05:58:55;;;;;;;;;;;;;;;17.05;93.42;101869.97;5045755;28;1157;-78
2023/09/07 06:01:20;;;;;;;;;;;;;;;17.08;93.26;101874.91;5032700;28;1245;-78
2023/09/07 06:03:45;;;;;;;;;;;;;;;17.11;93.58;101879.88;5045472;28;1415;-79
2023/09/07 06:06:11;;;;;;;;;;;;;;;17.15;93.77;101881.25;5043749;28;1561;-78
2023/09/07 06:08:36;;;;;;;;;;;;;;;17.19;93.66;101872.13;5043875;28;1208;-78
2023/09/07 06:11:01;;;;;;;;;;;;;;;17.24;93.62;101883.00;5033174;28;1404;-78
2023/09/07 06:13:29;;;;;;;;;;;;;;;17.26;93.57;101888.94;5027632;28;1886;-79
2023/09/07 06:15:54;;;;;;;;;;;;;;;17.31;93.93;101888.50;5045070;28;1335;-78
2023/09/07 06:18:19;;;;;;;;;;;;;;;17.35;93.76;101892.50;5050894;28;1243;-80
2023/09/07 06:20:44;;;;;;;;;;;;;;;17.42;93.99;101890.94;5036512;28;1523;-79
2023/09/07 06:23:09;;;;;;;;;;;;;;;17.47;93.86;101897.41;5045712;28;1312;-80
2023/09/07 06:25:35;;;;;;;;;;;;;;;17.54;93.94;101897.66;5049232;28;1289;-79
2023/09/07 06:28:00;;;;;;;;;;;;;;;17.55;93.72;101893.25;5042381;28;1121;-80
2023/09/07 06:30:25;;;;;;;;;;;;;;;17.65;93.80;101905.34;5046203;28;1192;-79
2023/09/07 06:32:51;;;;;;;;;;;;;;;17.70;93.50;101897.88;5044130;28;1953;-79
2023/09/07 06:35:18;;;;;;;;;;;;;;;17.78;93.43;101905.06;5044530;28;1188;-79
2023/09/07 06:37:43;;;;;;;;;;;;;;;17.84;93.88;101899.22;5028976;28;1443;-79
2023/09/07 06:40:09;;;;;;;;;;;;;;;17.91;93.53;101904.72;5033493;28;1563;-79
2023/09/07 06:42:34;;;;;;;;;;;;;;;17.97;93.63;101910.19;5045340;28;1384;-80
2023/09/07 06:45:00;;;;;;;;;;;;;;;18.01;93.52;101901.06;5031683;28;1207;-80
2023/09/07 06:47:25;;;;;;;;;;;;;;;18.04;93.51;101898.13;5043463;28;1279;-80
2023/09/07 06:49:50;;;;;;;;;;;;;;;18.09;93.56;101902.13;5029583;28;1455;-79
2023/09/07 06:52:15;;;;;;;;;;;;;;;18.14;93.32;101905.97;5032263;28;1462;-79
2023/09/07 06:54:40;;;;;;;;;;;;;;;18.21;93.09;101914.06;5047043;28;1907;-79
2023/09/07 06:57:07;;;;;;;;;;;;;;;18.27;93.25;101910.84;5046468;28;1238;-79
2023/09/07 06:59:32;;;;;;;;;;;;;;;18.33;93.47;101915.50;5048023;28;1137;-79
2023/09/07 07:01:59;;;;;;;;;;;;;;;18.40;92.97;101911.28;5048209;28;1189;-79
2023/09/07 07:04:24;;;;;;;;;;;;;;;18.46;92.85;101910.69;5048294;28;1188;-79
2023/09/07 07:06:49;;;;;;;;;;;;;;;18.54;92.90;101917.84;5033292;28;1350;-79
2023/09/07 07:09:15;;;;;;;;;;;;;;;18.62;92.79;101910.00;5030989;28;1381;-78
2023/09/07 07:11:40;;;;;;;;;;;;;;;18.70;92.66;101912.75;5046054;28;1490;-78
2023/09/07 07:14:06;;;;;;;;;;;;;;;18.81;92.29;101914.31;5043303;28;1930;-79
2023/09/07 07:16:31;;;;;;;;;;;;;;;18.91;92.82;101915.03;5040553;28;1400;-80
2023/09/07 07:18:56;;;;;;;;;;;;;;;19.01;92.65;101920.22;5044761;28;1230;-79
2023/09/07 07:21:21;;;;;;;;;;;;;;;19.10;92.55;101914.03;5036735;28;1273;-78
2023/09/07 07:23:46;;;;;;;;;;;;;;;19.20;92.30;101919.19;5050782;28;1391;-79
2023/09/07 07:26:12;;;;;;;;;;;;;;;19.30;92.31;101914.63;5039238;28;948;-79
2023/09/07 07:28:37;;;;;;;;;;;;;;;19.38;91.69;101914.69;5040111;28;1172;-79
2023/09/07 07:31:11;;;;;;;;;;;;;;;19.52;90.90;101908.84;5046486;28;1145;-79
2023/09/07 07:33:37;;;;;;;;;;;;;;;19.58;90.26;101913.50;5044810;28;1902;-79
2023/09/07 07:36:03;;;;;;;;;;;;;;;19.66;89.86;101909.25;5047260;28;1133;-78
2023/09/07 07:38:28;;;;;;;;;;;;;;;19.73;89.40;101910.28;5040902;28;1049;-79
2023/09/07 07:40:55;;;;;;;;;;;;;;;19.79;89.16;101910.47;5039813;28;1216;-79
2023/09/07 07:43:21;;;;;;;;;;;;;;;19.96;88.55;101916.63;5038809;28;1046;-80
2023/09/07 07:45:46;;;;;;;;;;;;;;;19.96;88.67;101900.81;5037557;28;1363;-80
2023/09/07 07:48:11;;;;;;;;;;;;;;;20.07;88.42;101908.44;5038022;28;1153;-79
2023/09/07 07:50:38;;;;;;;;;;;;;;;20.16;87.81;101910.06;5030923;28;1373;-80
2023/09/07 07:53:04;;;;;;;;;;;;;;;20.25;85.65;101904.84;5048461;28;1957;-79
2023/09/07 07:55:29;;;;;;;;;;;;;;;20.38;86.61;101906.00;5042107;28;1176;-79
2023/09/07 07:57:55;;;;;;;;;;;;;;;20.49;85.83;101912.78;5049213;28;1052;-79
2023/09/07 08:00:20;;;;;;;;;;;;;;;20.58;84.21;101917.06;5046820;28;1474;-79
2023/09/07 08:02:45;;;;;;;;;;;;;;;20.69;85.12;101908.84;5048157;28;1554;-79
2023/09/07 08:05:10;;;;;;;;;;;;;;;20.78;79.77;101911.47;5034890;28;1554;-79
2023/09/07 08:07:35;;;;;;;;;;;;;;;20.87;83.25;101910.47;5036634;28;1329;-79
2023/09/07 08:10:01;;;;;;;;;;;;;;;20.94;82.04;101911.47;5047155;28;1416;-80
2023/09/07 08:12:26;;;;;;;;;;;;;;;21.02;81.90;101903.53;5041719;28;1236;-80
2023/09/07 08:14:52;;;;;;;;;;;;;;;21.13;82.35;101910.28;5048252;28;1878;-79
2023/09/07 08:17:17;;;;;;;;;;;;;;;21.21;79.78;101908.44;5041990;28;1151;-80
2023/09/07 08:19:43;;;;;;;;;;;;;;;21.30;81.11;101911.91;5045975;28;1251;-79
2023/09/07 08:22:09;;;;;;;;;;;;;;;21.37;79.83;101901.50;5046528;28;1513;-80
2023/09/07 08:24:34;;;;;;;;;;;;;;;21.47;78.17;101897.69;5044967;28;1554;-80
2023/09/07 08:27:00;;;;;;;;;;;;;;;21.56;78.78;101895.81;5030117;28;1363;-80
2023/09/07 08:29:26;;;;;;;;;;;;;;;21.64;78.58;101887.88;5038465;28;1207;-80
2023/09/07 08:31:52;;;;;;;;;;;;;;;21.70;79.51;101881.91;5047480;28;1157;-79
2023/09/07 08:34:20;;;;;;;;;;;;;;;21.79;76.50;101884.50;5045522;28;1918;-80
2023/09/07 08:36:46;;;;;;;;;;;;;;;21.88;77.25;101883.47;5045696;28;1384;-80
2023/09/07 08:39:12;;;;;;;;;;;;;;;21.97;76.22;101877.16;5043284;28;1193;-79
2023/09/07 08:41:42;;;;;;;;;;;;;;;22.10;76.55;101871.31;5042291;28;1375;-79
2023/09/07 08:44:08;;;;;;;;;;;;;;;22.15;74.80;101880.38;5038457;28;1176;-79
2023/09/07 08:46:33;;;;;;;;;;;;;;;22.20;73.04;101872.72;5045387;28;1509;-80
2023/09/07 08:49:03;;;;;;;;;;;;;;;22.30;72.70;101871.66;5026104;28;1336;-79
2023/09/07 08:51:29;;;;;;;;;;;;;;;22.39;72.76;101866.13;5025837;28;1454;-79
2023/09/07 08:53:56;;;;;;;;;;;;;;;22.53;74.21;101867.16;5038655;28;1929;-79
2023/09/07 08:56:21;;;;;;;;;;;;;;;22.66;73.96;101870.06;5044930;28;1170;-79
2023/09/07 08:58:49;;;;;;;;;;;;;;;22.67;72.75;101863.75;5039829;28;1303;-79
2023/09/07 09:01:14;;;;;;;;;;;;;;;22.77;72.86;101868.78;5046079;28;1224;-79
2023/09/07 09:03:39;;;;;;;;;;;;;;;22.88;72.67;101864.91;5047692;28;1053;-79
2023/09/07 09:06:05;;;;;;;;;;;;;;;22.98;72.18;101863.63;5045166;28;1063;-79
2023/09/07 09:08:41;;;;;;;;;;;;;;;23.05;71.87;101863.72;5044043;28;1320;-79
2023/09/07 09:11:07;;;;;;;;;;;;;;;23.15;71.31;101864.28;5046220;28;1295;-79
2023/09/07 09:13:32;;;;;;;;;;;;;;;23.25;71.48;101870.13;5037162;28;1890;-79
2023/09/07 09:16:03;;;;;;;;;;;;;;;23.30;70.29;101870.41;5044955;28;1040;-79
2023/09/07 09:18:29;;;;;;;;;;;;;;;23.42;70.23;101872.56;5044334;28;1245;-79
2023/09/07 09:20:54;;;;;;;;;;;;;;;23.48;67.91;101866.53;5046337;28;1307;-79
2023/09/07 09:23:20;;;;;;;;;;;;;;;23.53;68.35;101859.69;5047621;28;1237;-79
2023/09/07 09:25:45;;;;;;;;;;;;;;;23.60;66.62;101865.06;5042924;28;1320;-79
2023/09/07 09:28:10;;;;;;;;;;;;;;;23.64;66.26;101860.25;5040866;28;1117;-79
2023/09/07 09:30:36;;;;;;;;;;;;;;;23.67;66.18;101855.38;5042474;28;1302;-79
2023/09/07 09:33:01;;;;;;;;;;;;;;;23.74;67.43;101856.31;5042601;28;1925;-79
2023/09/07 09:35:27;;;;;;;;;;;;;;;23.85;65.97;101855.78;5030354;28;1216;-79
2023/09/07 09:37:52;;;;;;;;;;;;;;;23.91;67.18;101856.03;5044814;28;1092;-80
2023/09/07 09:40:17;;;;;;;;;;;;;;;24.01;67.23;101848.63;5042267;28;973;-79
2023/09/07 09:42:43;;;;;;;;;;;;;;;24.07;67.11;101846.03;5042292;28;1065;-79
2023/09/07 09:45:09;;;;;;;;;;;;;;;24.16;66.49;101852.03;5047855;28;1023;-79
2023/09/07 09:47:38;;;;;;;;;;;;;;;24.24;64.92;101846.59;5042322;28;1296;-79
2023/09/07 09:50:06;;;;;;;;;;;;;;;24.32;62.65;101854.44;5022922;28;1301;-79
2023/09/07 09:52:35;;;;;;;;;;;;;;;24.38;65.64;101842.28;5022611;28;1294;-79
2023/09/07 09:55:02;;;;;;;;;;;;;;;24.50;64.69;101850.53;5005154;28;1938;-79
2023/09/07 09:57:28;;;;;;;;;;;;;;;24.53;65.14;101842.97;5028063;28;1217;-80
2023/09/07 09:59:54;;;;;;;;;;;;;;;24.62;65.04;101843.66;5019378;28;1025;-80
2023/09/07 10:02:20;;;;;;;;;;;;;;;24.70;63.96;101848.00;5021527;28;1477;-80
2023/09/07 10:04:45;;;;;;;;;;;;;;;24.76;62.81;101856.00;5030717;28;1212;-79
2023/09/07 10:07:10;;;;;;;;;;;;;;;24.83;62.63;101851.59;5015956;28;1289;-80
2023/09/07 10:09:38;;;;;;;;;;;;;;;24.88;62.73;101851.78;5024715;28;1280;-79
2023/09/07 10:12:04;;;;;;;;;;;;;;;24.98;60.35;101853.28;5029402;28;1249;-80
2023/09/07 10:14:42;;;;;;;;;;;;;;;25.00;60.22;101845.94;5016391;28;1902;-79
2023/09/07 10:17:09;;;;;;;;;;;;;;;25.08;61.91;101843.16;5012787;28;1386;-79
2023/09/07 10:19:36;;;;;;;;;;;;;;;25.12;61.40;101842.59;5023342;28;1296;-79
2023/09/07 10:22:03;;;;;;;;;;;;;;;25.20;60.71;101836.28;5028630;28;1177;-80
2023/09/07 10:24:28;;;;;;;;;;;;;;;25.26;58.53;101840.81;5010178;28;1279;-79
2023/09/07 10:27:00;;;;;;;;;;;;;;;25.28;59.24;101822.81;5029564;28;1178;-79
2023/09/07 10:29:26;;;;;;;;;;;;;;;25.48;58.01;101835.38;5027228;28;1208;-79
2023/09/07 10:31:51;;;;;;;;;;;;;;;25.45;57.93;101841.06;5025297;28;1177;-79
2023/09/07 10:34:17;;;;;;;;;;;;;;;25.54;58.15;101837.25;5009756;28;1929;-79
2023/09/07 10:36:42;;;;;;;;;;;;;;;25.60;57.98;101842.56;5014534;28;1198;-79
2023/09/07 10:39:08;;;;;;;;;;;;;;;25.70;56.58;101836.88;5028791;28;1244;-79
2023/09/07 10:41:42;;;;;;;;;;;;;;;25.73;57.54;101839.13;5028672;28;1134;-80
2023/09/07 10:44:07;;;;;;;;;;;;;;;25.82;57.24;101835.31;5028905;28;1291;-79
2023/09/07 10:46:32;;;;;;;;;;;;;;;25.90;57.61;101837.75;5022411;28;1213;-80
2023/09/07 10:48:58;;;;;;;;;;;;;;;26.07;57.68;101832.88;5029825;28;1268;-79
2023/09/07 10:51:24;;;;;;;;;;;;;;;26.14;55.99;101833.69;5028944;28;1331;-79
2023/09/07 10:53:49;;;;;;;;;;;;;;;26.20;56.77;101840.03;5019911;28;1929;-79
2023/09/07 10:56:14;;;;;;;;;;;;;;;26.29;53.98;101836.16;5028494;28;1071;-80
2023/09/07 10:58:41;;;;;;;;;;;;;;;26.35;55.89;101830.03;5025223;28;1490;-79
2023/09/07 11:01:07;;;;;;;;;;;;;;;26.40;55.00;101827.56;5020598;28;1174;-80
2023/09/07 11:03:33;;;;;;;;;;;;;;;26.44;52.88;101826.19;5026981;28;1380;-79
2023/09/07 11:06:07;;;;;;;;;;;;;;;26.47;52.24;101825.75;5020185;28;1177;-80
2023/09/07 11:08:33;;;;;;;;;;;;;;;26.52;51.50;101819.00;5018805;28;1314;-80
2023/09/07 11:10:58;;;;;;;;;;;;;;;26.56;53.27;101817.56;5028882;28;1165;-79
2023/09/07 11:13:24;;;;;;;;;;;;;;;26.65;53.89;101818.97;5025409;28;1906;-79
2023/09/07 11:15:53;;;;;;;;;;;;;;;26.67;53.69;101817.75;5027834;28;1253;-79
2023/09/07 11:18:21;;;;;;;;;;;;;;;26.79;53.68;101815.28;5027843;28;1508;-79
2023/09/07 11:20:47;;;;;;;;;;;;;;;26.88;51.13;101814.00;5019324;28;1292;-80
2023/09/07 11:23:12;;;;;;;;;;;;;;;26.87;51.81;101807.03;5025148;28;1147;-79
2023/09/07 11:25:38;;;;;;;;;;;;;;;26.90;51.00;101811.97;5025690;28;1320;-79
2023/09/07 11:28:06;;;;;;;;;;;;;;;26.93;52.49;101811.53;5025209;28;1332;-79
2023/09/07 11:30:35;;;;;;;;;;;;;;;26.96;52.26;101811.13;5024562;28;1050;-79
2023/09/07 11:33:07;;;;;;;;;;;;;;;27.06;52.42;101809.84;5010384;28;1961;-79
2023/09/07 11:35:32;;;;;;;;;;;;;;;27.15;52.10;101808.63;5015822;28;1286;-80
2023/09/07 11:37:59;;;;;;;;;;;;;;;27.19;51.23;101802.66;5012065;28;1487;-79
2023/09/07 11:40:24;;;;;;;;;;;;;;;27.20;50.39;101800.81;5020153;28;1095;-79
2023/09/07 11:42:49;;;;;;;;;;;;;;;27.26;51.67;101799.97;5004208;28;1348;-80
2023/09/07 11:45:15;;;;;;;;;;;;;;;27.30;51.75;101806.53;5020798;28;1142;-80
2023/09/07 11:47:43;;;;;;;;;;;;;;;27.37;52.16;101796.63;5018486;28;1258;-79
2023/09/07 11:50:10;;;;;;;;;;;;;;;27.50;51.00;101791.22;5008481;28;1206;-80
2023/09/07 11:52:36;;;;;;;;;;;;;;;27.46;51.94;101790.00;5019023;28;1202;-79
2023/09/07 11:55:03;;;;;;;;;;;;;;;27.49;50.66;101792.25;5021130;28;1898;-79
2023/09/07 11:57:28;;;;;;;;;;;;;;;27.55;50.72;101795.09;5004558;28;1173;-79
2023/09/07 11:59:53;;;;;;;;;;;;;;;27.62;51.10;101793.22;5024807;28;1200;-79
2023/09/07 12:02:21;;;;;;;;;;;;;;;27.69;51.47;101794.81;5027334;28;1198;-79
2023/09/07 12:04:46;;;;;;;;;;;;;;;27.79;51.30;101794.34;5021770;28;1234;-79
2023/09/07 12:07:11;;;;;;;;;;;;;;;27.85;49.93;101785.50;5005411;28;1316;-80
2023/09/07 12:09:36;;;;;;;;;;;;;;;27.88;49.40;101777.06;5018339;28;1215;-80
2023/09/07 12:12:03;;;;;;;;;;;;;;;27.74;47.03;101791.53;5019939;28;1293;-80
2023/09/07 12:14:28;;;;;;;;;;;;;;;27.76;49.21;101789.47;5026454;28;1902;-80
2023/09/07 12:16:53;;;;;;;;;;;;;;;27.83;49.52;101784.09;5024805;28;1220;-81
2023/09/07 12:19:19;;;;;;;;;;;;;;;27.89;48.96;101783.22;5027848;28;1197;-80
2023/09/07 12:21:44;;;;;;;;;;;;;;;27.91;48.44;101787.28;5023326;28;1295;-79
2023/09/07 12:24:09;;;;;;;;;;;;;;;27.94;48.95;101781.53;5023076;28;1253;-80
2023/09/07 12:26:34;;;;;;;;;;;;;;;27.97;49.43;101781.09;5019788;28;1286;-79
2023/09/07 12:29:08;;;;;;;;;;;;;;;27.98;49.06;101777.38;5082316;27;1946;-75
2023/09/07 12:31:33;;;;;;;;;;;;;;;28.01;47.63;101771.63;5074752;28;1367;-75
2023/09/07 12:33:58;;;;;;;;;;;;;;;28.08;48.36;101778.75;5072780;28;1211;-74
2023/09/07 12:36:23;;;;;;;;;;;;;;;28.21;47.37;101770.63;5074754;28;1219;-74
2023/09/07 12:38:49;;;;;;;;;;;;;;;28.36;48.27;101768.47;5076395;28;1223;-74
2023/09/07 12:41:15;;;;;;;;;;;;;;;28.44;46.09;101765.50;5074163;28;1035;-75
2023/09/07 12:43:41;;;;;;;;;;;;;;;28.46;47.93;101768.78;5064801;28;1355;-76